Time;durP1;ratioP1;P1;durP2;ratioP2;P2;SDS_P1;SDS_P2;PMS_P1;PMS_P2;Temp;Humidity;BMP_temperature;BMP_pressure;BME280_temperature;BME280_humidity;BME280_pressure;Samples;Min_cycle;Max_cycle;Signal;HPM_P1;HPM_P2
2022/12/04 00:01:57;;;;;;;32.85;16.17;;;;;;;;;;5105790;28;20074;-64
2022/12/04 00:04:27;;;;;;;32.22;16.45;;;;;;;;;;5108559;28;20039;-64
2022/12/04 00:06:54;;;;;;;29.88;16.50;;;;;;;;;;5107601;28;20458;-64
2022/12/04 00:09:20;;;;;;;25.42;15.32;;;;;;;;;;5116936;28;20504;-64
2022/12/04 00:11:46;;;;;;;29.52;15.23;;;;;;;;;;5104296;28;20051;-64
2022/12/04 00:14:13;;;;;;;28.13;16.20;;;;;;;;;;5122455;28;20042;-64
2022/12/04 00:16:39;;;;;;;32.70;17.45;;;;;;;;;;5103231;28;20047;-63
2022/12/04 00:19:05;;;;;;;31.50;16.45;;;;;;;;;;5112711;28;20093;-63
2022/12/04 00:21:31;;;;;;;24.52;14.13;;;;;;;;;;5115538;28;20126;-63
2022/12/04 00:23:57;;;;;;;26.30;14.10;;;;;;;;;;5114828;28;20039;-63
2022/12/04 00:26:26;;;;;;;23.77;15.27;;;;;;;;;;5116614;28;20039;-65
2022/12/04 00:28:52;;;;;;;25.42;14.52;;;;;;;;;;5126613;28;20054;-63
2022/12/04 00:31:23;;;;;;;29.27;14.93;;;;;;;;;;5123429;28;20054;-64
2022/12/04 00:33:50;;;;;;;24.45;15.15;;;;;;;;;;5118577;28;20058;-63
2022/12/04 00:36:17;;;;;;;23.48;13.55;;;;;;;;;;5115464;28;20065;-64
2022/12/04 00:38:44;;;;;;;28.13;16.88;;;;;;;;;;5102311;28;20503;-64
2022/12/04 00:41:15;;;;;;;25.00;15.63;;;;;;;;;;5124077;28;20039;-63
2022/12/04 00:43:41;;;;;;;28.98;15.40;;;;;;;;;;5126645;28;20038;-64
2022/12/04 00:46:08;;;;;;;31.88;16.55;;;;;;;;;;5122427;28;20131;-63
2022/12/04 00:48:34;;;;;;;26.23;14.20;;;;;;;;;;5120756;28;20508;-63
2022/12/04 00:51:04;;;;;;;31.30;15.70;;;;;;;;;;5115982;28;20502;-63
2022/12/04 00:53:30;;;;;;;30.83;15.98;;;;;;;;;;5111489;27;20043;-64
2022/12/04 00:55:56;;;;;;;29.38;15.90;;;;;;;;;;5111943;27;20386;-64
2022/12/04 00:58:23;;;;;;;25.20;14.35;;;;;;;;;;5126293;27;21664;-63
2022/12/04 01:00:49;;;;;;;27.13;15.73;;;;;;;;;;5120181;27;20039;-63
2022/12/04 01:03:15;;;;;;;26.67;14.23;;;;;;;;;;5126910;27;20066;-63
2022/12/04 01:05:42;;;;;;;26.17;15.35;;;;;;;;;;5124364;27;20092;-63
2022/12/04 01:08:09;;;;;;;28.40;14.77;;;;;;;;;;5122023;27;20122;-64
2022/12/04 01:10:37;;;;;;;27.63;16.38;;;;;;;;;;5118439;27;20051;-63
2022/12/04 01:13:03;;;;;;;26.08;14.80;;;;;;;;;;5123010;27;20047;-63
2022/12/04 01:15:29;;;;;;;29.73;14.73;;;;;;;;;;5107637;27;20577;-63
2022/12/04 01:17:55;;;;;;;28.45;14.57;;;;;;;;;;5121310;27;20519;-64
2022/12/04 01:20:21;;;;;;;27.33;14.80;;;;;;;;;;5105973;28;20031;-63
2022/12/04 01:22:47;;;;;;;28.58;15.75;;;;;;;;;;5117520;27;20680;-63
2022/12/04 01:25:13;;;;;;;27.27;15.57;;;;;;;;;;5124528;27;20043;-63
2022/12/04 01:27:40;;;;;;;27.25;15.80;;;;;;;;;;5127449;27;20035;-64
2022/12/04 01:30:06;;;;;;;29.45;15.75;;;;;;;;;;5114895;27;20051;-62
2022/12/04 01:32:32;;;;;;;29.73;15.35;;;;;;;;;;5127104;27;20066;-65
2022/12/04 01:34:58;;;;;;;25.92;15.40;;;;;;;;;;5094915;27;20043;-64
2022/12/04 01:37:24;;;;;;;25.88;14.95;;;;;;;;;;5120121;27;20024;-63
2022/12/04 01:39:50;;;;;;;30.38;15.70;;;;;;;;;;5124881;27;20071;-62
2022/12/04 01:42:17;;;;;;;30.13;15.48;;;;;;;;;;5123565;27;20051;-63
2022/12/04 01:44:44;;;;;;;28.58;17.13;;;;;;;;;;5121140;27;20072;-62
2022/12/04 01:47:10;;;;;;;26.92;15.20;;;;;;;;;;5128374;27;20039;-62
2022/12/04 01:49:44;;;;;;;27.17;15.45;;;;;;;;;;5115001;27;20047;-62
2022/12/04 01:52:13;;;;;;;27.05;15.82;;;;;;;;;;5118207;27;20040;-62
2022/12/04 01:54:42;;;;;;;25.42;15.77;;;;;;;;;;5127590;27;20043;-63
2022/12/04 01:57:09;;;;;;;25.42;15.50;;;;;;;;;;5126725;27;20031;-62
2022/12/04 01:59:38;;;;;;;27.80;14.55;;;;;;;;;;5118420;27;20031;-62
2022/12/04 02:02:07;;;;;;;27.02;14.90;;;;;;;;;;5122932;27;20112;-62
2022/12/04 02:04:34;;;;;;;26.48;14.57;;;;;;;;;;5106646;27;20393;-62
2022/12/04 02:07:00;;;;;;;32.05;17.77;;;;;;;;;;5126930;27;20039;-62
2022/12/04 02:09:27;;;;;;;26.90;15.35;;;;;;;;;;5124301;27;20035;-62
2022/12/04 02:11:58;;;;;;;34.50;17.75;;;;;;;;;;5116754;27;20450;-62
2022/12/04 02:14:46;;;;;;;29.33;16.73;;;;;;;;;;5124675;27;20074;-62
2022/12/04 02:17:21;;;;;;;32.38;15.88;;;;;;;;;;5120937;27;20568;-63
2022/12/04 02:19:57;;;;;;;30.75;16.35;;;;;;;;;;5125824;27;20035;-62
2022/12/04 02:22:35;;;;;;;30.95;16.35;;;;;;;;;;5113579;27;20081;-62
2022/12/04 02:25:08;;;;;;;28.10;15.85;;;;;;;;;;5125719;27;20126;-62
2022/12/04 02:27:43;;;;;;;34.03;17.23;;;;;;;;;;5119736;27;20039;-62
2022/12/04 02:30:10;;;;;;;34.33;16.13;;;;;;;;;;5127208;27;20289;-62
2022/12/04 02:32:46;;;;;;;32.17;16.40;;;;;;;;;;5117546;27;20509;-63
2022/12/04 02:35:15;;;;;;;32.47;17.70;;;;;;;;;;5123563;27;20126;-62
2022/12/04 02:37:46;;;;;;;30.15;16.60;;;;;;;;;;5118579;27;20058;-62
2022/12/04 02:40:35;;;;;;;33.03;18.30;;;;;;;;;;5120966;27;20043;-63
2022/12/04 02:43:07;;;;;;;28.00;16.23;;;;;;;;;;5110112;27;20397;-63
2022/12/04 02:45:37;;;;;;;30.65;17.00;;;;;;;;;;5109389;27;20043;-62
2022/12/04 02:48:05;;;;;;;28.42;15.52;;;;;;;;;;5127514;27;20061;-62
2022/12/04 02:50:33;;;;;;;35.42;18.50;;;;;;;;;;5120243;27;20455;-62
2022/12/04 02:53:02;;;;;;;29.08;16.40;;;;;;;;;;5096195;27;20126;-63
2022/12/04 02:55:32;;;;;;;29.23;16.83;;;;;;;;;;5125903;27;20047;-63
2022/12/04 02:58:01;;;;;;;31.42;17.00;;;;;;;;;;5117195;27;20042;-62
2022/12/04 03:00:28;;;;;;;33.42;17.00;;;;;;;;;;5112946;27;20030;-62
2022/12/04 03:02:59;;;;;;;31.35;15.73;;;;;;;;;;5100412;27;20484;-64
2022/12/04 03:05:40;;;;;;;29.95;15.52;;;;;;;;;;5118171;27;20086;-63
2022/12/04 03:08:18;;;;;;;42.85;16.50;;;;;;;;;;5125098;27;20035;-64
2022/12/04 03:10:48;;;;;;;31.83;17.90;;;;;;;;;;5116793;27;20485;-64
2022/12/04 03:13:28;;;;;;;29.80;17.38;;;;;;;;;;5117086;27;20430;-63
2022/12/04 03:15:59;;;;;;;34.88;18.33;;;;;;;;;;5116218;27;20047;-64
2022/12/04 03:18:31;;;;;;;36.33;18.08;;;;;;;;;;5109071;27;20401;-63
2022/12/04 03:21:00;;;;;;;31.23;17.52;;;;;;;;;;5121319;27;20034;-63
2022/12/04 03:23:29;;;;;;;29.55;16.80;;;;;;;;;;5098852;28;20075;-63
2022/12/04 03:25:55;;;;;;;31.58;17.42;;;;;;;;;;5119886;27;20042;-64
2022/12/04 03:28:27;;;;;;;36.92;18.80;;;;;;;;;;5107600;28;20067;-63
2022/12/04 03:30:56;;;;;;;31.23;17.27;;;;;;;;;;5121343;27;20096;-63
2022/12/04 03:33:28;;;;;;;30.60;18.25;;;;;;;;;;5110272;28;20412;-64
2022/12/04 03:36:20;;;;;;;26.65;17.67;;;;;;;;;;5121046;27;20051;-64
2022/12/04 03:38:58;;;;;;;30.27;18.37;;;;;;;;;;5120962;28;20047;-63
2022/12/04 03:41:27;;;;;;;35.15;20.23;;;;;;;;;;5121519;28;20058;-63
2022/12/04 03:44:00;;;;;;;31.10;18.08;;;;;;;;;;5108800;28;20062;-64
2022/12/04 03:46:26;;;;;;;;;;;;;;;;;;5127018;28;20096;-63
2022/12/04 03:49:01;;;;;;;32.47;18.23;;;;;;;;;;5114834;28;19930;-64
2022/12/04 03:51:37;;;;;;;30.90;17.50;;;;;;;;;;5108024;28;20046;-64
2022/12/04 03:54:07;;;;;;;27.48;17.88;;;;;;;;;;5121942;28;20088;-64
2022/12/04 03:56:45;;;;;;;34.53;18.52;;;;;;;;;;5109481;28;20478;-63
2022/12/04 03:59:15;;;;;;;34.20;19.15;;;;;;;;;;5123728;28;20129;-64
2022/12/04 04:01:44;;;;;;;31.58;18.20;;;;;;;;;;5116969;28;20032;-63
2022/12/04 04:04:13;;;;;;;28.50;17.35;;;;;;;;;;5106318;28;20430;-64
2022/12/04 04:06:41;;;;;;;34.42;19.40;;;;;;;;;;5123637;28;20035;-63
2022/12/04 04:09:14;;;;;;;34.75;19.55;;;;;;;;;;5112208;28;20481;-63
2022/12/04 04:11:43;;;;;;;37.83;17.90;;;;;;;;;;5098737;28;20032;-64
2022/12/04 04:25:33;;;;;;;33.63;20.00;;;;;;;;;;5125140;28;20058;-63
2022/12/04 04:27:59;;;;;;;38.63;20.15;;;;;;;;;;5119391;27;20039;-64
2022/12/04 04:30:27;;;;;;;45.42;22.55;;;;;;;;;;5105389;28;20063;-63
2022/12/04 04:33:08;;;;;;;43.42;23.17;;;;;;;;;;5116364;27;20039;-63
2022/12/04 04:35:35;;;;;;;39.95;22.70;;;;;;;;;;5125063;27;20105;-63
2022/12/04 04:38:18;;;;;;;38.78;19.60;;;;;;;;;;5131293;27;20476;-64
2022/12/04 04:41:16;;;;;;;37.83;20.48;;;;;;;;;;5123411;27;20058;-63
2022/12/04 04:43:45;;;;;;;38.97;21.45;;;;;;;;;;5082825;27;20507;-63
2022/12/04 04:46:19;;;;;;;40.80;20.92;;;;;;;;;;5118873;27;20097;-63
2022/12/04 04:48:50;;;;;;;40.80;23.75;;;;;;;;;;5106625;28;20047;-63
2022/12/04 04:51:17;;;;;;;38.47;22.30;;;;;;;;;;5117883;27;20040;-64
2022/12/04 04:53:48;;;;;;;41.83;21.85;;;;;;;;;;5122249;27;20027;-65
2022/12/04 04:56:14;;;;;;;38.45;21.05;;;;;;;;;;5127848;27;20043;-63
2022/12/04 04:58:41;;;;;;;42.90;24.35;;;;;;;;;;5126844;27;20557;-63
2022/12/04 05:01:14;;;;;;;44.75;23.13;;;;;;;;;;5126630;27;20365;-63
2022/12/04 05:03:41;;;;;;;40.05;22.40;;;;;;;;;;5118056;27;20031;-64
2022/12/04 05:06:07;;;;;;;44.80;23.92;;;;;;;;;;5126040;27;20445;-63
2022/12/04 05:08:33;;;;;;;41.13;22.33;;;;;;;;;;5123417;27;20516;-62
2022/12/04 05:11:00;;;;;;;41.55;23.35;;;;;;;;;;5106779;27;20400;-63
2022/12/04 05:13:27;;;;;;;49.50;22.92;;;;;;;;;;5110641;27;20039;-62
2022/12/04 05:16:08;;;;;;;35.20;21.85;;;;;;;;;;5122518;27;20095;-63
2022/12/04 05:18:34;;;;;;;43.33;22.92;;;;;;;;;;5108983;27;20040;-62
2022/12/04 05:21:18;;;;;;;38.97;21.67;;;;;;;;;;5126456;27;20059;-63
2022/12/04 05:23:44;;;;;;;;;;;;;;;;;;5122285;27;20631;-62
2022/12/04 05:26:10;;;;;;;42.80;24.00;;;;;;;;;;5129255;27;20010;-63
2022/12/04 05:28:36;;;;;;;40.88;23.23;;;;;;;;;;5123369;27;20048;-63
2022/12/04 05:31:03;;;;;;;48.08;23.63;;;;;;;;;;5127405;27;20184;-63
2022/12/04 05:33:30;;;;;;;41.85;22.83;;;;;;;;;;5119429;27;20395;-62
2022/12/04 05:36:03;;;;;;;45.85;24.20;;;;;;;;;;5120294;27;20036;-62
2022/12/04 05:38:30;;;;;;;43.80;23.65;;;;;;;;;;5090149;27;20031;-62
2022/12/04 05:40:59;;;;;;;42.83;23.17;;;;;;;;;;5123593;27;20028;-63
2022/12/04 05:43:25;;;;;;;42.55;23.83;;;;;;;;;;5127930;27;20499;-62
2022/12/04 05:45:52;;;;;;;45.10;24.55;;;;;;;;;;5125297;27;20040;-62
2022/12/04 05:48:18;;;;;;;39.97;22.35;;;;;;;;;;5121201;27;20036;-62
2022/12/04 05:50:44;;;;;;;41.47;24.20;;;;;;;;;;5121656;27;20043;-63
2022/12/04 05:53:10;;;;;;;37.65;21.17;;;;;;;;;;5121288;27;21072;-62
2022/12/04 05:55:36;;;;;;;44.95;25.30;;;;;;;;;;5121812;27;20169;-63
2022/12/04 05:58:03;;;;;;;41.13;22.27;;;;;;;;;;5108641;27;20043;-62
2022/12/04 06:00:29;;;;;;;45.88;23.00;;;;;;;;;;5123039;27;20036;-63
2022/12/04 06:02:55;;;;;;;40.85;24.25;;;;;;;;;;5107970;27;20038;-62
2022/12/04 06:05:22;;;;;;;42.40;24.83;;;;;;;;;;5107638;27;20126;-62
2022/12/04 06:07:48;;;;;;;42.45;24.98;;;;;;;;;;5114603;27;20205;-63
2022/12/04 06:10:14;;;;;;;40.97;21.77;;;;;;;;;;5125862;27;20100;-62
2022/12/04 06:12:40;;;;;;;44.38;25.75;;;;;;;;;;5125612;27;20278;-62
2022/12/04 06:15:06;;;;;;;44.40;24.95;;;;;;;;;;5105192;28;20035;-62
2022/12/04 06:17:32;;;;;;;41.92;24.30;;;;;;;;;;5105183;27;20122;-62
2022/12/04 06:19:58;;;;;;;44.20;24.00;;;;;;;;;;5116741;27;20451;-62
2022/12/04 06:22:25;;;;;;;44.17;24.33;;;;;;;;;;5120017;27;20659;-62
2022/12/04 06:24:51;;;;;;;49.65;27.70;;;;;;;;;;5121430;27;20130;-71
2022/12/04 06:27:17;;;;;;;40.80;24.10;;;;;;;;;;5119364;27;20403;-71
2022/12/04 06:29:43;;;;;;;46.20;24.38;;;;;;;;;;5122353;27;20050;-71
2022/12/04 06:32:09;;;;;;;44.42;25.42;;;;;;;;;;5123364;27;20051;-71
2022/12/04 06:34:35;;;;;;;45.63;25.05;;;;;;;;;;5121882;27;20055;-71
2022/12/04 06:37:02;;;;;;;48.83;25.23;;;;;;;;;;5114080;27;20035;-71
2022/12/04 06:39:28;;;;;;;38.10;23.65;;;;;;;;;;5092358;27;20039;-71
2022/12/04 06:41:54;;;;;;;41.70;23.50;;;;;;;;;;5123691;27;20235;-71
2022/12/04 06:44:20;;;;;;;49.22;24.63;;;;;;;;;;5125379;27;20070;-71
2022/12/04 06:46:48;;;;;;;44.20;25.13;;;;;;;;;;5088317;27;20039;-71
2022/12/04 06:49:14;;;;;;;39.63;23.55;;;;;;;;;;5122229;27;20039;-71
2022/12/04 06:51:41;;;;;;;41.25;23.13;;;;;;;;;;5108744;27;20512;-71
2022/12/04 06:54:07;;;;;;;42.92;23.52;;;;;;;;;;5120082;27;20538;-71
2022/12/04 06:56:33;;;;;;;45.30;23.52;;;;;;;;;;5105873;27;20388;-71
2022/12/04 06:59:01;;;;;;;46.65;24.85;;;;;;;;;;5122236;27;20032;-71
2022/12/04 07:01:29;;;;;;;43.53;24.27;;;;;;;;;;5117065;27;20093;-71
2022/12/04 07:03:55;;;;;;;41.85;22.77;;;;;;;;;;5118948;27;20665;-72
2022/12/04 07:06:26;;;;;;;45.67;25.52;;;;;;;;;;5124526;27;20289;-71
2022/12/04 07:08:54;;;;;;;44.67;22.90;;;;;;;;;;5116791;27;20043;-71
2022/12/04 07:11:23;;;;;;;41.97;22.80;;;;;;;;;;5119592;27;20046;-72
2022/12/04 07:13:49;;;;;;;38.80;22.45;;;;;;;;;;5129043;27;20262;-72
2022/12/04 07:16:17;;;;;;;40.25;23.83;;;;;;;;;;5122447;27;20122;-71
2022/12/04 07:18:43;;;;;;;45.45;23.00;;;;;;;;;;5122530;27;20079;-71
2022/12/04 07:21:10;;;;;;;35.38;20.02;;;;;;;;;;5121552;27;20023;-71
2022/12/04 07:23:37;;;;;;;40.47;23.45;;;;;;;;;;5109853;27;20035;-71
2022/12/04 07:26:04;;;;;;;42.28;21.95;;;;;;;;;;5097720;28;20040;-71
2022/12/04 07:28:30;;;;;;;47.65;21.63;;;;;;;;;;5116517;27;20043;-71
2022/12/04 07:30:56;;;;;;;41.22;22.50;;;;;;;;;;5119026;27;20105;-72
2022/12/04 07:33:22;;;;;;;41.15;23.83;;;;;;;;;;5105111;28;20055;-71
2022/12/04 07:35:55;;;;;;;39.63;24.30;;;;;;;;;;5113744;27;20079;-72
2022/12/04 07:38:21;;;;;;;;;;;;;;;;;;5116609;27;20043;-70
2022/12/04 07:40:48;;;;;;;52.00;25.70;;;;;;;;;;5109995;28;19915;-71
2022/12/04 07:43:14;;;;;;;45.75;22.75;;;;;;;;;;5104001;28;20062;-72
2022/12/04 07:45:40;;;;;;;41.67;22.98;;;;;;;;;;5118448;28;20111;-71
2022/12/04 07:48:06;;;;;;;43.60;23.35;;;;;;;;;;5119836;28;20031;-71
2022/12/04 07:50:32;;;;;;;47.55;23.17;;;;;;;;;;5120663;28;20097;-71
2022/12/04 07:52:58;;;;;;;47.95;25.15;;;;;;;;;;5122441;28;20110;-71
2022/12/04 07:55:24;;;;;;;52.22;26.67;;;;;;;;;;5101592;28;20106;-70
2022/12/04 07:57:51;;;;;;;43.85;24.45;;;;;;;;;;5126815;28;20482;-71
2022/12/04 08:00:17;;;;;;;48.85;24.83;;;;;;;;;;5123198;28;20131;-71
2022/12/04 08:02:43;;;;;;;40.65;24.38;;;;;;;;;;5111446;27;20039;-71
2022/12/04 08:05:09;;;;;;;41.58;24.58;;;;;;;;;;5126071;27;20046;-71
2022/12/04 08:07:35;;;;;;;41.03;24.08;;;;;;;;;;5110640;27;20393;-71
2022/12/04 08:10:01;;;;;;;38.97;22.73;;;;;;;;;;5127751;27;20035;-71
2022/12/04 08:12:27;;;;;;;45.15;24.45;;;;;;;;;;5115452;27;20050;-71
2022/12/04 08:14:53;;;;;;;42.22;23.73;;;;;;;;;;5129934;27;20542;-71
2022/12/04 08:17:23;;;;;;;39.30;24.58;;;;;;;;;;5126464;27;20066;-71
2022/12/04 08:19:49;;;;;;;44.90;25.67;;;;;;;;;;5108290;27;20075;-71
2022/12/04 08:22:15;;;;;;;43.22;24.52;;;;;;;;;;5124830;27;20035;-71
2022/12/04 08:24:41;;;;;;;48.50;24.63;;;;;;;;;;5125875;27;20470;-71
2022/12/04 08:27:08;;;;;;;40.13;24.38;;;;;;;;;;5111142;27;20039;-71
2022/12/04 08:29:34;;;;;;;44.60;23.42;;;;;;;;;;5127477;27;20035;-71
2022/12/04 08:32:00;;;;;;;44.15;24.73;;;;;;;;;;5127370;27;20049;-71
2022/12/04 08:34:26;;;;;;;39.75;24.33;;;;;;;;;;5126232;27;20063;-71
2022/12/04 08:36:52;;;;;;;46.05;23.50;;;;;;;;;;5127058;27;20043;-71
2022/12/04 08:39:19;;;;;;;48.78;25.20;;;;;;;;;;5128151;27;20468;-71
2022/12/04 08:41:45;;;;;;;45.85;25.15;;;;;;;;;;5095658;27;20142;-71
2022/12/04 08:44:11;;;;;;;45.35;24.73;;;;;;;;;;5131405;27;20078;-71
2022/12/04 08:46:38;;;;;;;45.03;25.45;;;;;;;;;;5125440;27;20031;-71
2022/12/04 08:49:04;;;;;;;43.95;24.75;;;;;;;;;;5109084;27;20096;-72
2022/12/04 08:51:31;;;;;;;43.00;21.83;;;;;;;;;;5110488;27;20051;-72
2022/12/04 08:53:58;;;;;;;34.40;21.48;;;;;;;;;;5128273;27;20077;-71
2022/12/04 08:56:25;;;;;;;45.40;24.92;;;;;;;;;;5129098;27;20031;-72
2022/12/04 08:58:52;;;;;;;37.03;21.42;;;;;;;;;;5123156;27;20511;-72
2022/12/04 09:01:18;;;;;;;46.22;24.75;;;;;;;;;;5127080;27;20110;-72
2022/12/04 09:03:44;;;;;;;40.33;24.55;;;;;;;;;;5086011;27;20043;-71
2022/12/04 09:06:11;;;;;;;41.22;24.40;;;;;;;;;;5120669;27;20047;-72
2022/12/04 09:08:37;;;;;;;40.42;22.27;;;;;;;;;;5107822;27;20122;-71
2022/12/04 09:11:04;;;;;;;39.25;21.83;;;;;;;;;;5122588;27;20043;-72
2022/12/04 09:13:30;;;;;;;43.10;24.15;;;;;;;;;;5125004;27;20050;-72
2022/12/04 09:15:56;;;;;;;44.13;23.20;;;;;;;;;;5126381;27;20076;-72
2022/12/04 09:18:25;;;;;;;40.15;23.40;;;;;;;;;;5129997;27;20500;-72
2022/12/04 09:20:55;;;;;;;40.65;22.15;;;;;;;;;;5130891;27;20031;-72
2022/12/04 09:23:21;;;;;;;49.70;25.58;;;;;;;;;;5123422;27;20579;-72
2022/12/04 09:25:47;;;;;;;48.33;24.25;;;;;;;;;;5121976;27;20036;-72
2022/12/04 09:28:13;;;;;;;40.42;22.38;;;;;;;;;;5124428;27;20088;-72
2022/12/04 09:30:40;;;;;;;47.53;23.63;;;;;;;;;;5120215;27;20045;-72
2022/12/04 09:33:06;;;;;;;44.20;23.05;;;;;;;;;;5125113;27;20051;-72
2022/12/04 09:35:33;;;;;;;37.80;23.52;;;;;;;;;;5123060;27;20054;-72
2022/12/04 09:37:59;;;;;;;43.40;23.25;;;;;;;;;;5106271;27;20027;-72
2022/12/04 09:40:27;;;;;;;42.45;24.90;;;;;;;;;;5126091;27;20043;-72
2022/12/04 09:42:59;;;;;;;37.10;21.13;;;;;;;;;;5121782;27;20046;-72
2022/12/04 09:45:26;;;;;;;39.80;23.25;;;;;;;;;;5131597;27;20473;-72
2022/12/04 09:47:57;;;;;;;39.83;22.67;;;;;;;;;;5123882;27;20531;-72
2022/12/04 09:50:29;;;;;;;44.58;24.30;;;;;;;;;;5118198;27;20047;-71
2022/12/04 09:52:59;;;;;;;42.30;23.97;;;;;;;;;;5123801;27;20066;-71
2022/12/04 09:55:31;;;;;;;33.20;20.50;;;;;;;;;;5129238;27;20095;-72
2022/12/04 09:57:58;;;;;;;39.13;21.20;;;;;;;;;;5116238;27;20080;-71
2022/12/04 10:00:26;;;;;;;40.53;23.35;;;;;;;;;;5110487;27;20035;-72
2022/12/04 10:02:55;;;;;;;36.72;20.25;;;;;;;;;;5130977;27;20047;-71
2022/12/04 10:05:40;;;;;;;41.85;22.35;;;;;;;;;;5105458;27;20196;-72
2022/12/04 10:08:10;;;;;;;44.60;22.85;;;;;;;;;;5109179;27;20372;-72
2022/12/04 10:10:41;;;;;;;37.20;20.42;;;;;;;;;;5122587;27;20389;-71
2022/12/04 10:13:16;;;;;;;39.55;21.83;;;;;;;;;;5120493;27;20213;-72
2022/12/04 10:15:59;;;;;;;35.90;20.92;;;;;;;;;;5127103;27;20088;-71
2022/12/04 10:18:33;;;;;;;40.67;22.45;;;;;;;;;;5119749;27;20035;-72
2022/12/04 10:21:11;;;;;;;33.80;19.13;;;;;;;;;;5125151;27;20108;-72
2022/12/04 10:23:46;;;;;;;35.15;19.55;;;;;;;;;;5123284;27;20039;-72
2022/12/04 10:26:16;;;;;;;37.97;22.13;;;;;;;;;;5123437;27;20081;-71
2022/12/04 10:28:52;;;;;;;36.80;21.90;;;;;;;;;;5112235;27;20484;-72
2022/12/04 10:31:18;;;;;;;34.58;20.83;;;;;;;;;;5123874;27;20544;-71
2022/12/04 10:33:53;;;;;;;35.15;20.02;;;;;;;;;;5109624;27;20574;-72
2022/12/04 10:36:21;;;;;;;40.35;21.77;;;;;;;;;;5101288;28;20035;-72
2022/12/04 10:38:55;;;;;;;31.85;18.98;;;;;;;;;;5106215;28;20040;-71
2022/12/04 10:41:28;;;;;;;34.85;19.02;;;;;;;;;;5104961;28;20086;-72
2022/12/04 10:43:54;;;;;;;35.75;20.55;;;;;;;;;;5105688;28;20055;-72
2022/12/04 10:46:22;;;;;;;33.20;19.65;;;;;;;;;;5107563;28;20114;-72
2022/12/04 10:48:49;;;;;;;28.10;17.58;;;;;;;;;;5098840;28;20453;-72
2022/12/04 10:51:16;;;;;;;33.53;18.15;;;;;;;;;;5101146;28;20032;-72
2022/12/04 10:53:43;;;;;;;31.35;16.83;;;;;;;;;;5097911;28;20036;-72
2022/12/04 10:56:14;;;;;;;35.53;19.75;;;;;;;;;;5098586;28;20070;-72
2022/12/04 10:58:41;;;;;;;32.53;18.13;;;;;;;;;;5104583;28;20081;-73
2022/12/04 11:01:12;;;;;;;32.08;16.90;;;;;;;;;;5102280;28;20043;-72
2022/12/04 11:03:38;;;;;;;30.17;17.80;;;;;;;;;;5095731;28;20048;-72
2022/12/04 11:06:05;;;;;;;26.27;16.60;;;;;;;;;;5099034;28;20035;-72
2022/12/04 11:08:41;;;;;;;28.77;16.08;;;;;;;;;;5095443;28;20231;-71
2022/12/04 11:11:10;;;;;;;33.22;17.63;;;;;;;;;;5097195;28;20046;-72
2022/12/04 11:13:36;;;;;;;27.73;15.88;;;;;;;;;;5100080;28;20040;-72
2022/12/04 11:16:03;;;;;;;26.17;16.02;;;;;;;;;;5105665;28;20107;-72
2022/12/04 11:18:33;;;;;;;33.40;16.98;;;;;;;;;;5104249;28;20473;-72
2022/12/04 11:21:01;;;;;;;31.23;17.80;;;;;;;;;;5103673;28;20035;-72
2022/12/04 11:23:29;;;;;;;26.38;15.68;;;;;;;;;;5098074;28;20043;-72
2022/12/04 11:25:57;;;;;;;30.05;15.90;;;;;;;;;;5102924;28;20040;-72
2022/12/04 11:28:25;;;;;;;30.48;17.30;;;;;;;;;;5094916;28;20409;-72
2022/12/04 11:30:53;;;;;;;29.77;15.88;;;;;;;;;;5104251;28;20042;-72
2022/12/04 11:33:25;;;;;;;25.02;15.18;;;;;;;;;;5098273;28;20048;-72
2022/12/04 11:35:54;;;;;;;22.85;15.45;;;;;;;;;;5104035;28;20036;-72
2022/12/04 11:38:24;;;;;;;24.58;14.48;;;;;;;;;;5098288;28;20054;-72
2022/12/04 11:40:52;;;;;;;28.33;14.95;;;;;;;;;;5099578;28;20028;-72
2022/12/04 11:43:25;;;;;;;21.98;13.15;;;;;;;;;;5102511;28;20132;-72
2022/12/04 11:45:58;;;;;;;22.30;12.93;;;;;;;;;;5096527;28;20040;-72
2022/12/04 11:48:25;;;;;;;22.65;13.32;;;;;;;;;;5097039;28;20089;-72
2022/12/04 11:50:54;;;;;;;19.90;12.02;;;;;;;;;;5095840;28;20055;-72
2022/12/04 11:53:20;;;;;;;21.25;12.50;;;;;;;;;;5098479;28;20037;-72
2022/12/04 11:55:52;;;;;;;21.88;12.48;;;;;;;;;;5100440;28;20582;-72
2022/12/04 11:58:31;;;;;;;16.40;11.07;;;;;;;;;;5099192;28;20035;-72
2022/12/04 12:01:09;;;;;;;18.05;10.40;;;;;;;;;;5095658;28;20145;-72
2022/12/04 12:03:56;;;;;;;16.23;10.15;;;;;;;;;;5082488;28;20050;-72
2022/12/04 12:06:42;;;;;;;19.60;10.75;;;;;;;;;;5096905;28;20741;-72
2022/12/04 12:09:22;;;;;;;17.08;11.13;;;;;;;;;;5098678;28;20036;-72
2022/12/04 12:11:52;;;;;;;18.88;10.77;;;;;;;;;;5100807;28;20044;-71
2022/12/04 12:14:22;;;;;;;17.10;10.43;;;;;;;;;;5102944;28;20040;-72
2022/12/04 12:16:57;;;;;;;18.50;11.38;;;;;;;;;;5098885;28;20039;-72
2022/12/04 12:19:29;;;;;;;20.38;11.20;;;;;;;;;;5096234;28;20043;-72
2022/12/04 12:22:13;;;;;;;14.63;10.00;;;;;;;;;;5102820;28;20071;-70
2022/12/04 12:24:49;;;;;;;18.73;11.00;;;;;;;;;;5101446;28;20028;-72
2022/12/04 12:27:17;;;;;;;20.30;11.57;;;;;;;;;;5102922;28;20028;-72
2022/12/04 12:29:47;;;;;;;14.55;10.75;;;;;;;;;;5099769;28;20118;-72
2022/12/04 12:32:13;;;;;;;19.35;10.85;;;;;;;;;;5099161;28;20088;-72
2022/12/04 12:34:43;;;;;;;17.08;10.52;;;;;;;;;;5119562;28;20047;-72
2022/12/04 12:37:18;;;;;;;19.02;11.90;;;;;;;;;;5116645;28;20047;-72
2022/12/04 12:39:44;;;;;;;19.98;11.25;;;;;;;;;;5123567;28;20066;-72
2022/12/04 12:42:14;;;;;;;18.10;10.85;;;;;;;;;;5119465;28;20481;-72
2022/12/04 12:44:46;;;;;;;20.77;13.13;;;;;;;;;;5123887;28;20406;-72
2022/12/04 12:47:14;;;;;;;16.10;11.30;;;;;;;;;;5115379;27;20078;-72
2022/12/04 12:49:44;;;;;;;19.00;11.90;;;;;;;;;;5118633;27;20035;-72
2022/12/04 12:52:18;;;;;;;21.23;12.50;;;;;;;;;;5110347;27;20111;-72
2022/12/04 12:54:51;;;;;;;20.05;12.40;;;;;;;;;;5128340;27;20100;-72
2022/12/04 12:57:21;;;;;;;17.92;11.65;;;;;;;;;;5119937;27;20115;-72
2022/12/04 12:59:49;;;;;;;18.10;11.43;;;;;;;;;;5103496;27;20064;-72
2022/12/04 13:02:18;;;;;;;20.98;11.77;;;;;;;;;;5123956;27;20096;-72
2022/12/04 13:04:47;;;;;;;19.80;12.10;;;;;;;;;;5131735;27;20035;-72
2022/12/04 13:07:17;;;;;;;22.23;12.98;;;;;;;;;;5123833;27;20043;-72
2022/12/04 13:09:48;;;;;;;17.40;10.88;;;;;;;;;;5107999;27;20488;-72
2022/12/04 13:12:16;;;;;;;20.20;12.35;;;;;;;;;;5123981;27;20112;-72
2022/12/04 13:14:42;;;;;;;22.55;13.65;;;;;;;;;;5102451;27;20039;-71
2022/12/04 13:17:13;;;;;;;23.25;12.25;;;;;;;;;;5124236;27;20485;-72
2022/12/04 13:19:45;;;;;;;18.17;11.57;;;;;;;;;;5126760;27;20035;-72
2022/12/04 13:22:29;;;;;;;19.08;12.85;;;;;;;;;;5128646;27;20054;-72
2022/12/04 13:25:06;;;;;;;20.75;12.32;;;;;;;;;;5125779;27;20067;-72
2022/12/04 13:27:50;;;;;;;23.40;13.00;;;;;;;;;;5129247;27;20480;-72
2022/12/04 13:30:19;;;;;;;21.00;13.10;;;;;;;;;;5122335;27;20027;-72
2022/12/04 13:32:48;;;;;;;22.17;13.60;;;;;;;;;;5121905;27;20097;-72
2022/12/04 13:35:33;;;;;;;22.38;14.48;;;;;;;;;;5124825;27;20580;-72
2022/12/04 13:38:08;;;;;;;20.95;14.32;;;;;;;;;;5120439;27;20047;-72
2022/12/04 13:40:37;;;;;;;21.65;14.27;;;;;;;;;;5120873;27;20423;-72
2022/12/04 13:43:24;;;;;;;23.90;14.10;;;;;;;;;;5128237;27;20050;-72
2022/12/04 13:45:52;;;;;;;21.90;14.02;;;;;;;;;;5129250;27;20123;-73
2022/12/04 13:48:29;;;;;;;24.13;14.10;;;;;;;;;;5112918;27;20072;-73
2022/12/04 13:51:03;;;;;;;24.33;14.27;;;;;;;;;;5104115;27;20086;-72
2022/12/04 13:53:31;;;;;;;24.05;12.88;;;;;;;;;;5103808;27;20035;-72
2022/12/04 13:55:57;;;;;;;22.00;14.02;;;;;;;;;;5124848;27;20438;-72
2022/12/04 13:58:34;;;;;;;24.55;12.93;;;;;;;;;;5112505;27;20039;-72
2022/12/04 14:01:11;;;;;;;22.95;12.48;;;;;;;;;;5112759;27;20425;-72
2022/12/04 14:04:04;;;;;;;26.83;13.55;;;;;;;;;;5117457;27;20043;-72
2022/12/04 14:06:30;;;;;;;21.93;13.30;;;;;;;;;;5100259;27;20083;-72
2022/12/04 14:08:58;;;;;;;24.55;15.10;;;;;;;;;;5128133;27;20281;-72
2022/12/04 14:11:24;;;;;;;25.05;13.50;;;;;;;;;;5121347;27;20061;-72
2022/12/04 14:13:52;;;;;;;24.13;15.20;;;;;;;;;;5128726;27;20039;-72
2022/12/04 14:16:18;;;;;;;21.23;13.23;;;;;;;;;;5109931;28;20044;-72
2022/12/04 14:19:03;;;;;;;23.90;13.45;;;;;;;;;;5129072;27;20047;-72
2022/12/04 14:21:45;;;;;;;17.90;11.73;;;;;;;;;;5119436;27;20023;-72
2022/12/04 14:24:29;;;;;;;23.00;13.50;;;;;;;;;;5121149;27;20035;-72
2022/12/04 14:26:55;;;;;;;22.73;13.45;;;;;;;;;;5128905;27;20479;-73
2022/12/04 14:29:28;;;;;;;24.73;13.80;;;;;;;;;;5129161;27;20039;-72
2022/12/04 14:31:57;;;;;;;20.27;12.45;;;;;;;;;;5124631;27;20551;-72
2022/12/04 14:34:28;;;;;;;22.60;14.95;;;;;;;;;;5108875;27;20063;-72
2022/12/04 14:36:55;;;;;;;21.42;13.27;;;;;;;;;;5122567;27;20050;-72
2022/12/04 14:39:27;;;;;;;24.60;15.27;;;;;;;;;;5115383;27;20382;-73
2022/12/04 14:42:03;;;;;;;23.77;14.13;;;;;;;;;;5127662;27;20119;-72
2022/12/04 14:44:30;;;;;;;23.58;14.20;;;;;;;;;;5130636;27;20307;-72